createdAt,value
2022-11-27T00:01:12.960Z,98867.13
2022-11-27T00:03:43.412Z,98874.77
2022-11-27T00:06:16.212Z,98876.63
2022-11-27T00:08:47.053Z,98877.41
2022-11-27T00:11:18.936Z,98879.09
2022-11-27T00:13:49.391Z,98881.55
2022-11-27T00:16:20.420Z,98885.14
2022-11-27T00:18:51.881Z,98885.33
2022-11-27T00:21:24.516Z,98884.73
2022-11-27T00:23:55.950Z,98886.27
2022-11-27T00:26:26.279Z,98886.45
2022-11-27T00:28:56.745Z,98884.69
2022-11-27T00:31:30.848Z,98881.46
2022-11-27T00:34:02.602Z,98878.43
2022-11-27T00:36:33.980Z,98881.15
2022-11-27T00:39:04.309Z,98879.27
2022-11-27T00:41:34.908Z,98879.73
2022-11-27T00:44:06.041Z,98875.10
2022-11-27T00:46:36.548Z,98872.72
2022-11-27T00:49:08.325Z,98876.33
2022-11-27T00:51:38.542Z,98876.56
2022-11-27T00:54:09.331Z,98878.20
2022-11-27T00:56:40.580Z,98875.71
2022-11-27T00:59:12.102Z,98873.45
2022-11-27T01:01:44.338Z,98876.56
2022-11-27T01:04:16.116Z,98874.40
2022-11-27T01:06:46.713Z,98871.65
2022-11-27T01:09:17.040Z,98867.70
2022-11-27T01:11:47.235Z,98870.67
2022-11-27T01:14:18.424Z,98872.31
2022-11-27T01:16:48.454Z,98868.13
2022-11-27T01:19:19.263Z,98869.27
2022-11-27T01:21:49.508Z,98870.70
2022-11-27T01:24:19.660Z,98868.32
2022-11-27T01:26:49.591Z,98871.91
2022-11-27T01:29:19.702Z,98867.65
2022-11-27T01:31:56.733Z,98867.35
2022-11-27T01:34:26.859Z,98870.05
2022-11-27T01:36:56.842Z,98869.23
2022-11-27T01:39:26.992Z,98872.61
2022-11-27T01:41:56.972Z,98871.40
2022-11-27T01:44:55.509Z,98868.07
2022-11-27T01:47:38.623Z,98866.75
2022-11-27T01:50:16.690Z,98866.27
2022-11-27T01:52:51.442Z,98870.20
2022-11-27T01:55:26.492Z,98866.30
2022-11-27T01:57:59.421Z,98868.20
2022-11-27T02:00:29.622Z,98867.18
2022-11-27T02:02:59.832Z,98872.14
2022-11-27T02:05:30.502Z,98873.48
2022-11-27T02:08:03.557Z,98868.19
2022-11-27T02:10:43.091Z,98868.95
2022-11-27T02:13:18.310Z,98874.76
2022-11-27T02:15:57.743Z,98868.48
2022-11-27T02:18:36.743Z,98871.75
2022-11-27T02:21:12.222Z,98877.02
2022-11-27T02:24:21.734Z,98881.47
2022-11-27T02:27:37.042Z,98881.17
2022-11-27T02:30:08.992Z,98884.63
2022-11-27T02:32:45.117Z,98885.02
2022-11-27T02:35:21.080Z,98885.48
2022-11-27T02:37:57.712Z,98892.45
2022-11-27T02:40:38.239Z,98897.92
2022-11-27T02:43:12.760Z,98900.33
2022-11-27T02:45:45.606Z,98908.14
2022-11-27T02:48:19.360Z,98902.83
2022-11-27T02:50:51.991Z,98905.09
2022-11-27T02:53:26.720Z,98906.69
2022-11-27T02:55:59.051Z,98908.25
2022-11-27T02:58:30.321Z,98909.27
2022-11-27T03:01:22.411Z,98909.66
2022-11-27T03:03:56.552Z,98912.30
2022-11-27T03:06:30.833Z,98912.16
2022-11-27T03:09:07.353Z,98910.35
2022-11-27T03:11:38.081Z,98907.97
2022-11-27T03:14:10.752Z,98907.92
2022-11-27T03:16:45.161Z,98909.89
2022-11-27T03:19:20.130Z,98906.86
2022-11-27T03:21:53.352Z,98910.96
2022-11-27T03:24:23.811Z,98913.03
2022-11-27T03:26:53.885Z,98913.38
2022-11-27T03:29:30.641Z,98912.53
2022-11-27T03:32:01.383Z,98911.61
2022-11-27T03:34:32.035Z,98910.05
2022-11-27T03:37:02.448Z,98909.55
2022-11-27T03:39:33.412Z,98908.56
2022-11-27T03:42:13.067Z,98908.13
2022-11-27T03:44:48.591Z,98906.23
2022-11-27T03:47:33.268Z,98910.69
2022-11-27T03:50:16.386Z,98906.56
2022-11-27T03:52:55.202Z,98908.23
2022-11-27T03:55:33.862Z,98911.69
2022-11-27T03:58:09.701Z,98912.27
2022-11-27T04:00:42.532Z,98915.33
2022-11-27T04:03:14.450Z,98913.75
2022-11-27T04:05:44.712Z,98912.17
2022-11-27T04:08:14.702Z,98916.09
2022-11-27T04:10:44.852Z,98912.83
2022-11-27T04:13:15.228Z,98917.27
2022-11-27T04:15:45.426Z,98916.00
2022-11-27T04:18:15.566Z,98915.36
2022-11-27T04:20:45.751Z,98914.46
2022-11-27T04:23:15.744Z,98911.07
2022-11-27T04:25:45.862Z,98908.73
2022-11-27T04:28:17.212Z,98909.55
2022-11-27T04:30:51.089Z,98912.20
2022-11-27T04:33:21.458Z,98911.59
2022-11-27T04:35:51.986Z,98914.36
2022-11-27T04:38:22.521Z,98915.11
2022-11-27T04:40:54.400Z,98915.35
2022-11-27T04:43:24.402Z,98914.08
2022-11-27T04:45:54.551Z,98911.05
2022-11-27T04:48:24.489Z,98908.88
2022-11-27T04:50:55.931Z,98907.55
2022-11-27T04:53:25.701Z,98903.34
2022-11-27T04:55:56.035Z,98900.27
2022-11-27T04:58:25.912Z,98897.56
2022-11-27T05:00:56.141Z,98896.86
2022-11-27T05:03:25.950Z,98898.65
2022-11-27T05:05:59.491Z,98896.15
2022-11-27T05:08:31.672Z,98896.74
2022-11-27T05:11:03.660Z,98894.34
2022-11-27T05:13:34.101Z,98904.79
2022-11-27T05:16:05.432Z,98899.63
2022-11-27T05:18:35.345Z,98903.55
2022-11-27T05:21:07.593Z,98903.53
2022-11-27T05:23:37.368Z,98904.98
2022-11-27T05:26:10.110Z,98907.66
2022-11-27T05:28:39.872Z,98910.78
2022-11-27T05:31:09.875Z,98907.77
2022-11-27T05:33:39.723Z,98910.78
2022-11-27T05:36:10.502Z,98915.56
2022-11-27T05:38:41.253Z,98910.72
2022-11-27T05:41:11.481Z,98918.14
2022-11-27T05:43:41.792Z,98922.83
2022-11-27T05:46:14.154Z,98923.95
2022-11-27T05:48:44.027Z,98925.20
2022-11-27T05:51:14.440Z,98926.10
2022-11-27T05:53:44.650Z,98928.86
2022-11-27T05:56:17.138Z,98928.89
2022-11-27T05:58:48.992Z,98926.04
2022-11-27T06:01:20.230Z,98923.11
2022-11-27T06:03:50.186Z,98922.21
2022-11-27T06:06:21.272Z,98917.55
2022-11-27T06:08:51.610Z,98914.55
2022-11-27T06:11:23.071Z,98917.42
2022-11-27T06:13:53.267Z,98914.95
2022-11-27T06:16:24.995Z,98908.70
2022-11-27T06:18:56.194Z,98906.00
2022-11-27T06:21:26.361Z,98907.45
2022-11-27T06:23:57.033Z,98906.61
2022-11-27T06:26:28.942Z,98909.27
2022-11-27T06:29:00.012Z,98907.84
2022-11-27T06:31:32.535Z,98907.73
2022-11-27T06:34:02.854Z,98908.44
2022-11-27T06:36:34.593Z,98909.74
2022-11-27T06:39:06.206Z,98912.61
2022-11-27T06:41:36.351Z,98910.31
2022-11-27T06:44:06.594Z,98912.45
2022-11-27T06:46:37.051Z,98911.64
2022-11-27T06:49:07.010Z,98915.28
2022-11-27T06:51:36.870Z,98912.27
2022-11-27T06:54:06.914Z,98909.27
2022-11-27T06:56:36.763Z,98909.83
2022-11-27T06:59:06.870Z,98910.39
2022-11-27T07:01:37.017Z,98911.61
2022-11-27T07:04:07.346Z,98910.07
2022-11-27T07:06:37.974Z,98910.80
2022-11-27T07:09:08.159Z,98909.36
2022-11-27T07:11:39.034Z,98907.05
2022-11-27T07:14:10.382Z,98901.37
2022-11-27T07:16:40.755Z,98898.39
2022-11-27T07:19:11.341Z,98897.61
2022-11-27T07:21:41.660Z,98896.20
2022-11-27T07:24:11.662Z,98894.70
2022-11-27T07:26:41.752Z,98900.43
2022-11-27T07:29:11.691Z,98904.08
2022-11-27T07:31:41.946Z,98905.09
2022-11-27T07:34:17.091Z,98907.13
2022-11-27T07:36:51.073Z,98909.43
2022-11-27T07:39:34.094Z,98916.11
2022-11-27T07:42:36.919Z,98918.04
2022-11-27T07:45:02.498Z,98915.83
2022-11-27T07:47:32.429Z,98913.79
2022-11-27T07:50:02.211Z,98916.98
2022-11-27T07:52:34.513Z,98914.06
2022-11-27T07:55:09.011Z,98916.76
2022-11-27T07:57:38.986Z,98922.27
2022-11-27T08:00:11.170Z,98919.60
2022-11-27T08:02:42.363Z,98921.42
2022-11-27T08:05:13.188Z,98923.60
2022-11-27T08:07:44.142Z,98920.20
2022-11-27T08:10:14.609Z,98918.09
2022-11-27T08:12:47.228Z,98920.05
2022-11-27T08:15:17.044Z,98924.34
2022-11-27T08:17:47.891Z,98926.00
2022-11-27T08:20:19.471Z,98926.10
2022-11-27T08:22:50.081Z,98922.94
2022-11-27T08:25:34.141Z,98923.45
2022-11-27T08:28:06.910Z,98921.11
2022-11-27T08:30:37.214Z,98919.98
2022-11-27T08:33:08.221Z,98918.82
2022-11-27T08:35:38.470Z,98915.50
2022-11-27T08:38:09.171Z,98914.52
2022-11-27T08:40:39.693Z,98905.76
2022-11-27T08:43:24.221Z,98906.92
2022-11-27T08:45:55.385Z,98909.76
2022-11-27T08:48:39.681Z,98906.38
2022-11-27T08:51:12.274Z,98903.95
2022-11-27T08:53:59.113Z,98902.11
2022-11-27T08:56:31.577Z,98899.37
2022-11-27T08:59:02.290Z,98899.34
2022-11-27T09:01:33.754Z,98902.20
2022-11-27T09:04:05.969Z,98900.49
2022-11-27T09:06:36.493Z,98895.60
2022-11-27T09:09:20.601Z,98898.36
2022-11-27T09:11:50.821Z,98895.88
2022-11-27T09:14:21.472Z,98897.20
2022-11-27T09:16:53.341Z,98895.02
2022-11-27T09:19:23.781Z,98893.73
2022-11-27T09:21:54.352Z,98894.08
2022-11-27T09:24:25.007Z,98894.23
2022-11-27T09:26:55.431Z,98894.73
2022-11-27T09:29:25.842Z,98897.60
2022-11-27T09:31:56.520Z,98897.96
2022-11-27T09:34:28.042Z,98897.20
2022-11-27T09:36:58.231Z,98899.34
2022-11-27T09:39:33.853Z,98903.22
2022-11-27T09:42:08.278Z,98904.97
2022-11-27T09:44:43.536Z,98901.75
2022-11-27T09:47:31.322Z,98903.70
2022-11-27T09:50:05.191Z,98903.04
2022-11-27T09:52:52.682Z,98900.83
2022-11-27T09:55:28.542Z,98904.38
2022-11-27T09:58:03.041Z,98900.12
2022-11-27T10:00:34.127Z,98896.04
2022-11-27T10:03:06.497Z,98897.99
2022-11-27T10:05:45.480Z,98901.61
2022-11-27T10:11:45.962Z,98900.06
2022-11-27T10:14:33.492Z,98892.95
2022-11-27T10:17:08.368Z,98890.50
2022-11-27T10:19:51.092Z,98885.27
2022-11-27T10:22:28.904Z,98882.44
2022-11-27T10:25:28.413Z,98880.27
2022-11-27T10:28:16.681Z,98881.21
2022-11-27T10:31:11.002Z,98876.00
2022-11-27T10:33:46.991Z,98876.04
2022-11-27T10:36:25.880Z,98870.93
2022-11-27T10:38:58.081Z,98868.42
2022-11-27T10:41:49.973Z,98867.58
2022-11-27T10:44:32.421Z,98865.02
2022-11-27T10:47:05.152Z,98866.13
2022-11-27T10:49:38.413Z,98863.61
2022-11-27T10:52:36.542Z,98860.91
2022-11-27T10:55:21.054Z,98861.26
2022-11-27T10:58:05.072Z,98861.28
2022-11-27T11:00:36.375Z,98862.06
2022-11-27T11:03:07.560Z,98861.78
2022-11-27T11:06:19.502Z,98859.22
2022-11-27T11:08:51.523Z,98856.89
2022-11-27T11:11:28.825Z,98853.81
2022-11-27T11:13:59.191Z,98853.80
2022-11-27T11:16:34.809Z,98854.67
2022-11-27T11:19:08.200Z,98845.71
2022-11-27T11:21:42.581Z,98841.07
2022-11-27T11:24:18.878Z,98842.89
2022-11-27T11:26:51.571Z,98847.41
2022-11-27T11:29:30.551Z,98844.36
2022-11-27T11:32:08.772Z,98838.63
2022-11-27T11:34:44.337Z,98834.27
2022-11-27T11:37:50.034Z,98831.72
2022-11-27T11:40:26.955Z,98833.02
2022-11-27T11:42:59.484Z,98831.68
2022-11-27T11:45:33.129Z,98827.48
2022-11-27T11:48:04.034Z,98826.33
2022-11-27T11:50:42.992Z,98824.37
2022-11-27T11:53:18.698Z,98825.82
2022-11-27T11:55:59.801Z,98825.91
2022-11-27T11:59:01.201Z,98824.06
2022-11-27T12:01:55.930Z,98823.71
2022-11-27T12:04:39.530Z,98821.33
2022-11-27T12:07:20.964Z,98820.57
2022-11-27T12:10:12.317Z,98817.96
2022-11-27T12:12:56.172Z,98819.21
2022-11-27T12:15:33.182Z,98816.66
2022-11-27T12:18:10.160Z,98817.46
2022-11-27T12:20:52.842Z,98814.61
2022-11-27T12:23:54.777Z,98811.95
2022-11-27T12:26:38.413Z,98813.52
2022-11-27T12:29:41.470Z,98804.27
2022-11-27T12:32:34.712Z,98804.24
2022-11-27T12:35:43.333Z,98802.63
2022-11-27T12:38:36.161Z,98805.66
2022-11-27T12:41:37.039Z,98806.54
2022-11-27T12:44:42.994Z,98810.69
2022-11-27T12:47:38.979Z,98806.16
2022-11-27T12:50:24.239Z,98796.23
2022-11-27T12:53:00.734Z,98795.34
2022-11-27T12:55:57.623Z,98795.73
2022-11-27T12:58:32.313Z,98797.12
2022-11-27T13:01:08.503Z,98797.77
2022-11-27T13:03:50.577Z,98794.57
2022-11-27T13:06:59.625Z,98789.45
2022-11-27T13:09:51.923Z,98786.15
2022-11-27T13:12:30.443Z,98784.27
2022-11-27T13:15:34.862Z,98781.45
2022-11-27T13:18:32.192Z,98779.30
2022-11-27T13:21:23.052Z,98778.61
2022-11-27T13:24:09.228Z,98775.13
2022-11-27T13:26:45.934Z,98779.19
2022-11-27T13:29:27.311Z,98779.43
2022-11-27T13:32:16.034Z,98779.79
2022-11-27T13:34:49.181Z,98781.48
2022-11-27T13:37:32.491Z,98784.80
2022-11-27T13:40:07.204Z,98782.20
2022-11-27T13:43:05.822Z,98780.77
2022-11-27T13:45:38.617Z,98780.62
2022-11-27T13:48:33.671Z,98779.40
2022-11-27T13:51:25.240Z,98778.96
2022-11-27T13:54:07.313Z,98778.73
2022-11-27T13:57:11.922Z,98777.03
2022-11-27T13:59:42.522Z,98775.52
2022-11-27T14:02:13.310Z,98775.41
2022-11-27T14:04:56.066Z,98773.55
2022-11-27T14:07:41.497Z,98769.21
2022-11-27T14:10:28.277Z,98769.56
2022-11-27T14:13:01.802Z,98775.39
2022-11-27T14:15:34.495Z,98775.70
2022-11-27T14:18:18.475Z,98777.82
2022-11-27T14:21:02.103Z,98776.89
2022-11-27T14:23:53.220Z,98777.67
2022-11-27T14:26:41.342Z,98779.75
2022-11-27T14:29:39.094Z,98787.00
2022-11-27T14:32:15.032Z,98786.70
2022-11-27T14:34:46.738Z,98782.80
2022-11-27T14:37:26.334Z,98784.07
2022-11-27T14:39:58.419Z,98787.83
2022-11-27T14:42:32.989Z,98784.56
2022-11-27T14:45:20.422Z,98786.60
2022-11-27T14:48:04.852Z,98791.86
2022-11-27T14:50:36.616Z,98788.71
2022-11-27T14:53:07.532Z,98782.05
2022-11-27T14:55:53.992Z,98781.90
2022-11-27T14:58:28.073Z,98776.77
2022-11-27T15:00:58.691Z,98774.06
2022-11-27T15:03:29.818Z,98775.67
2022-11-27T15:06:02.642Z,98779.00
2022-11-27T15:08:36.119Z,98775.27
2022-11-27T15:11:49.153Z,98780.03
2022-11-27T15:14:21.780Z,98772.14
2022-11-27T15:17:09.017Z,98764.84
2022-11-27T15:19:43.418Z,98759.75
2022-11-27T15:22:19.993Z,98755.05
2022-11-27T15:25:01.370Z,98755.80
2022-11-27T15:27:48.194Z,98756.03
2022-11-27T15:30:34.713Z,98753.02
2022-11-27T15:33:53.088Z,98754.41
2022-11-27T15:36:56.761Z,98757.64
2022-11-27T15:40:04.891Z,98759.36
2022-11-27T15:42:56.094Z,98762.77
2022-11-27T15:45:46.153Z,98763.85
2022-11-27T15:48:33.877Z,98766.05
2022-11-27T15:51:09.596Z,98758.36
2022-11-27T15:54:05.644Z,98757.33
2022-11-27T15:56:57.464Z,98756.83
2022-11-27T15:59:30.883Z,98751.37
2022-11-27T16:02:17.269Z,98750.20
2022-11-27T16:05:08.717Z,98746.45
2022-11-27T16:07:55.174Z,98748.71
2022-11-27T16:10:45.761Z,98749.41
2022-11-27T16:13:17.302Z,98746.53
2022-11-27T16:16:18.233Z,98737.02
2022-11-27T16:19:19.901Z,98744.24
2022-11-27T16:22:03.951Z,98744.38
2022-11-27T16:24:37.926Z,98742.97
2022-11-27T16:27:11.125Z,98741.80
2022-11-27T16:29:41.850Z,98737.38
2022-11-27T16:32:15.546Z,98738.94
2022-11-27T16:34:47.801Z,98740.61
2022-11-27T16:37:44.613Z,98736.66
2022-11-27T16:40:22.222Z,98737.38
2022-11-27T16:43:41.333Z,98734.33
2022-11-27T16:46:32.642Z,98724.96
2022-11-27T16:49:26.461Z,98722.69
2022-11-27T16:52:29.542Z,98718.04
2022-11-27T16:55:21.719Z,98720.55
2022-11-27T16:58:10.633Z,98718.67
2022-11-27T17:00:42.801Z,98719.05
2022-11-27T17:03:24.602Z,98719.62
2022-11-27T17:05:59.632Z,98719.98
2022-11-27T17:08:58.168Z,98721.42
2022-11-27T17:11:50.094Z,98718.16
2022-11-27T17:14:36.170Z,98716.46
2022-11-27T17:17:39.965Z,98713.66
2022-11-27T17:20:15.832Z,98712.30
2022-11-27T17:22:48.510Z,98707.92
2022-11-27T17:25:20.813Z,98707.70
2022-11-27T17:28:05.713Z,98713.64
2022-11-27T17:30:39.469Z,98710.11
2022-11-27T17:33:38.254Z,98706.23
2022-11-27T17:36:23.213Z,98701.54
2022-11-27T17:38:54.051Z,98699.73
2022-11-27T17:41:57.114Z,98695.16
2022-11-27T17:44:44.403Z,98693.08
2022-11-27T17:47:34.351Z,98688.86
2022-11-27T17:50:05.201Z,98681.77
2022-11-27T17:53:07.623Z,98679.33
2022-11-27T17:56:28.302Z,98679.30
2022-11-27T17:59:15.080Z,98672.53
2022-11-27T18:02:00.689Z,98673.42
2022-11-27T18:04:47.136Z,98671.98
2022-11-27T18:07:19.804Z,98674.61
2022-11-27T18:10:05.542Z,98668.40
2022-11-27T18:12:36.362Z,98670.86
2022-11-27T18:15:26.192Z,98666.39
2022-11-27T18:18:16.220Z,98663.29
2022-11-27T18:21:07.057Z,98657.96
2022-11-27T18:24:21.469Z,98661.77
2022-11-27T18:32:41.352Z,98652.27
2022-11-27T18:35:15.912Z,98649.09
2022-11-27T18:38:23.215Z,98644.27
2022-11-27T18:44:05.461Z,98642.12
2022-11-27T18:46:36.744Z,98637.96
2022-11-27T18:49:36.729Z,98639.44
2022-11-27T18:52:10.101Z,98638.69
2022-11-27T18:54:43.652Z,98637.95
2022-11-27T18:57:46.535Z,98636.45
2022-11-27T19:00:27.402Z,98633.05
2022-11-27T19:03:01.899Z,98630.02
2022-11-27T19:06:03.291Z,98633.79
2022-11-27T19:08:39.504Z,98639.29
2022-11-27T19:11:16.008Z,98641.22
2022-11-27T19:13:50.881Z,98642.15
2022-11-27T19:16:25.233Z,98645.96
2022-11-27T19:18:59.884Z,98647.39
2022-11-27T19:21:35.231Z,98646.45
2022-11-27T19:24:23.999Z,98655.36
2022-11-27T19:27:25.752Z,98656.45
2022-11-27T19:30:10.102Z,98655.17
2022-11-27T19:32:56.140Z,98656.77
2022-11-27T19:36:06.532Z,98652.14
2022-11-27T19:38:54.192Z,98649.63
2022-11-27T19:41:41.575Z,98651.38
2022-11-27T19:44:31.640Z,98649.38
2022-11-27T19:47:03.382Z,98648.21
2022-11-27T19:49:50.250Z,98644.58
2022-11-27T19:52:21.621Z,98641.70
2022-11-27T19:55:08.722Z,98639.81
2022-11-27T19:57:44.231Z,98633.77
2022-11-27T20:00:17.613Z,98632.52
2022-11-27T20:03:03.511Z,98634.42
2022-11-27T20:06:26.762Z,98629.56
2022-11-27T20:17:33.330Z,98619.30
2022-11-27T20:20:07.959Z,98615.05
2022-11-27T20:22:40.370Z,98612.95
2022-11-27T20:25:19.605Z,98614.22
2022-11-27T20:27:51.219Z,98615.46
2022-11-27T20:30:21.270Z,98614.05
2022-11-27T20:32:50.676Z,98608.70
2022-11-27T20:35:20.368Z,98608.51
2022-11-27T20:37:50.223Z,98606.18
2022-11-27T20:40:25.486Z,98602.91
2022-11-27T20:42:55.478Z,98594.41
2022-11-27T20:45:25.616Z,98593.86
2022-11-27T20:47:56.108Z,98587.92
2022-11-27T20:50:25.671Z,98590.70
2022-11-27T20:52:55.281Z,98591.85
2022-11-27T20:55:25.512Z,98591.88
2022-11-27T20:57:55.589Z,98595.19
2022-11-27T21:00:26.689Z,98593.04
2022-11-27T21:02:56.728Z,98587.59
2022-11-27T21:05:26.326Z,98589.29
2022-11-27T21:07:57.602Z,98588.09
2022-11-27T21:10:28.110Z,98592.27
2022-11-27T21:12:57.869Z,98589.48
2022-11-27T21:15:27.319Z,98587.32
2022-11-27T21:17:57.238Z,98584.50
2022-11-27T21:20:28.085Z,98586.28
2022-11-27T21:22:57.988Z,98587.95
2022-11-27T21:25:27.317Z,98590.00
2022-11-27T21:27:59.000Z,98587.32
2022-11-27T21:30:30.708Z,98580.58
2022-11-27T21:33:00.450Z,98577.57
2022-11-27T21:35:32.761Z,98578.26
2022-11-27T21:38:04.749Z,98577.34
2022-11-27T21:40:36.451Z,98578.65
2022-11-27T21:43:06.152Z,98585.62
2022-11-27T21:45:37.464Z,98579.67
2022-11-27T21:48:13.934Z,98578.58
2022-11-27T21:50:44.409Z,98574.32
2022-11-27T21:53:13.991Z,98573.27
2022-11-27T21:55:46.602Z,98575.23
2022-11-27T21:58:16.227Z,98575.48
2022-11-27T22:00:46.315Z,98574.66
2022-11-27T22:03:15.884Z,98570.64
2022-11-27T22:05:45.267Z,98567.70
2022-11-27T22:08:14.742Z,98561.84
2022-11-27T22:10:45.319Z,98558.69
2022-11-27T22:13:15.508Z,98557.05
2022-11-27T22:15:46.572Z,98557.95
2022-11-27T22:18:16.616Z,98558.79
2022-11-27T22:20:46.538Z,98557.59
2022-11-27T22:23:16.288Z,98557.66
2022-11-27T22:25:45.929Z,98560.42
2022-11-27T22:28:15.247Z,98559.05
2022-11-27T22:30:45.026Z,98552.27
2022-11-27T22:33:14.410Z,98545.19
2022-11-27T22:35:43.749Z,98545.34
2022-11-27T22:38:13.173Z,98547.39
2022-11-27T22:40:43.940Z,98545.23
2022-11-27T22:43:13.678Z,98539.40
2022-11-27T22:45:47.361Z,98540.79
2022-11-27T22:48:17.559Z,98534.72
2022-11-27T22:50:55.020Z,98535.30
2022-11-27T22:53:25.506Z,98532.04
2022-11-27T22:55:55.301Z,98531.50
2022-11-27T22:58:25.297Z,98515.96
2022-11-27T23:00:58.864Z,98514.96
2022-11-27T23:03:28.471Z,98512.35
2022-11-27T23:05:58.129Z,98510.02
2022-11-27T23:08:27.749Z,98509.70
2022-11-27T23:10:57.148Z,98510.60
2022-11-27T23:13:26.540Z,98505.33
2022-11-27T23:15:55.918Z,98498.54
2022-11-27T23:18:25.603Z,98494.27
2022-11-27T23:20:55.159Z,98493.46
2022-11-27T23:23:27.029Z,98489.92
2022-11-27T23:25:56.538Z,98488.02
2022-11-27T23:28:25.831Z,98491.40
2022-11-27T23:31:15.625Z,98490.97
2022-11-27T23:33:45.381Z,98490.95
2022-11-27T23:36:14.958Z,98484.44
2022-11-27T23:38:46.476Z,98477.98
2022-11-27T23:41:19.632Z,98480.22
2022-11-27T23:43:49.948Z,98486.22
2022-11-27T23:46:22.333Z,98488.12
2022-11-27T23:48:54.021Z,98485.73
2022-11-27T23:51:27.810Z,98481.16
2022-11-27T23:53:56.241Z,98478.92
2022-11-27T23:56:27.660Z,98477.64
2022-11-27T23:58:57.683Z,98476.50
